createdAt,value
2019-02-23T00:02:08.375Z,15.47
2019-02-23T00:04:36.680Z,13.30
2019-02-23T00:07:05.236Z,15.43
2019-02-23T00:09:33.659Z,12.73
2019-02-23T00:12:04.523Z,14.17
2019-02-23T00:14:32.100Z,19.37
2019-02-23T00:17:00.348Z,11.97
2019-02-23T00:19:28.686Z,21.13
2019-02-23T00:21:57.074Z,18.07
2019-02-23T00:24:25.545Z,18.07
2019-02-23T00:26:53.938Z,16.33
2019-02-23T00:29:22.350Z,16.10
2019-02-23T00:31:50.826Z,19.93
2019-02-23T00:34:19.248Z,15.10
2019-02-23T00:36:47.813Z,12.60
2019-02-23T00:39:16.331Z,15.80
2019-02-23T00:41:44.725Z,12.90
2019-02-23T00:44:13.117Z,13.43
2019-02-23T00:46:41.558Z,10.73
2019-02-23T00:49:09.913Z,12.10
2019-02-23T00:51:38.321Z,11.60
2019-02-23T00:54:06.747Z,14.87
2019-02-23T00:56:34.973Z,14.63
2019-02-23T00:59:03.453Z,21.60
2019-02-23T01:01:31.925Z,17.17
2019-02-23T01:04:00.301Z,21.50
2019-02-23T01:06:29.882Z,15.30
2019-02-23T01:08:58.304Z,10.00
2019-02-23T01:11:26.738Z,14.93
2019-02-23T01:13:55.190Z,11.23
2019-02-23T01:16:23.497Z,7.33
2019-02-23T01:18:51.877Z,13.20
2019-02-23T01:21:20.113Z,12.50
2019-02-23T01:23:48.484Z,11.07
2019-02-23T01:26:16.777Z,8.70
2019-02-23T01:28:45.019Z,12.77
2019-02-23T01:31:13.433Z,12.43
2019-02-23T01:33:41.816Z,17.37
2019-02-23T01:36:10.173Z,17.30
2019-02-23T01:38:38.646Z,11.10
2019-02-23T01:41:06.995Z,7.73
2019-02-23T01:43:35.446Z,11.00
2019-02-23T01:46:03.666Z,10.90
2019-02-23T01:48:32.170Z,14.43
2019-02-23T01:51:01.593Z,11.40
2019-02-23T01:53:29.852Z,10.57
2019-02-23T01:55:58.334Z,14.67
2019-02-23T01:58:26.661Z,17.33
2019-02-23T02:00:55.204Z,12.63
2019-02-23T02:03:23.777Z,15.73
2019-02-23T02:05:52.281Z,15.17
2019-02-23T02:08:21.845Z,9.60
2019-02-23T02:10:50.145Z,21.63
2019-02-23T02:13:18.863Z,13.23
2019-02-23T02:15:48.617Z,14.13
2019-02-23T02:18:16.979Z,14.20
2019-02-23T02:20:45.387Z,12.50
2019-02-23T02:23:13.838Z,13.80
2019-02-23T02:25:42.438Z,16.10
2019-02-23T02:28:10.846Z,12.80
2019-02-23T02:30:39.453Z,14.73
2019-02-23T02:33:07.826Z,14.97
2019-02-23T02:35:36.292Z,12.57
2019-02-23T02:38:04.684Z,10.30
2019-02-23T02:40:32.966Z,18.67
2019-02-23T02:43:01.337Z,16.87
2019-02-23T02:45:29.841Z,15.57
2019-02-23T02:47:58.266Z,9.43
2019-02-23T02:50:26.542Z,17.67
2019-02-23T02:52:54.937Z,14.53
2019-02-23T02:55:23.454Z,14.97
2019-02-23T02:57:51.846Z,14.30
2019-02-23T03:00:20.413Z,19.97
2019-02-23T03:02:48.848Z,17.63
2019-02-23T03:05:17.221Z,15.17
2019-02-23T03:07:45.460Z,10.07
2019-02-23T03:10:14.034Z,18.57
2019-02-23T03:12:43.435Z,15.17
2019-02-23T03:15:11.918Z,15.07
2019-02-23T03:17:40.394Z,13.37
2019-02-23T03:20:08.902Z,14.90
2019-02-23T03:22:38.384Z,18.97
2019-02-23T03:25:07.001Z,14.57
2019-02-23T03:27:36.493Z,16.93
2019-02-23T03:30:06.121Z,13.53
2019-02-23T03:32:34.583Z,12.70
2019-02-23T03:35:02.835Z,14.50
2019-02-23T03:37:31.321Z,21.20
2019-02-23T03:39:59.530Z,18.23
2019-02-23T03:42:27.749Z,21.23
2019-02-23T03:44:56.063Z,14.97
2019-02-23T03:47:24.397Z,14.07
2019-02-23T03:49:52.745Z,15.60
2019-02-23T03:52:21.183Z,20.93
2019-02-23T03:54:49.447Z,14.10
2019-02-23T03:57:17.757Z,18.70
2019-02-23T03:59:46.643Z,15.87
2019-02-23T04:02:15.010Z,12.47
2019-02-23T04:04:43.324Z,14.47
2019-02-23T04:07:11.523Z,15.70
2019-02-23T04:09:39.834Z,14.67
2019-02-23T04:12:08.218Z,13.73
2019-02-23T04:14:36.495Z,15.67
2019-02-23T04:17:04.980Z,19.07
2019-02-23T04:19:33.262Z,22.27
2019-02-23T04:22:01.434Z,14.00
2019-02-23T04:24:29.708Z,13.57
2019-02-23T04:26:57.987Z,15.40
2019-02-23T04:29:27.687Z,15.77
2019-02-23T04:31:56.208Z,16.80
2019-02-23T04:34:24.528Z,18.83
2019-02-23T04:36:52.892Z,24.70
2019-02-23T04:39:21.205Z,19.17
2019-02-23T04:41:49.443Z,14.97
2019-02-23T04:44:17.760Z,21.60
2019-02-23T04:46:46.143Z,16.33
2019-02-23T04:49:14.281Z,14.63
2019-02-23T04:51:42.455Z,16.80
2019-02-23T04:54:10.693Z,18.50
2019-02-23T04:56:38.949Z,14.90
2019-02-23T04:59:07.162Z,15.47
2019-02-23T05:04:24.995Z,16.87
2019-02-23T05:06:53.459Z,20.60
2019-02-23T05:09:21.758Z,12.67
2019-02-23T05:11:51.578Z,21.60
2019-02-23T05:14:20.045Z,22.60
2019-02-23T05:16:48.305Z,22.37
2019-02-23T05:19:16.568Z,32.00
2019-02-23T05:21:44.963Z,19.13
2019-02-23T05:24:13.137Z,18.20
2019-02-23T05:26:41.284Z,50.67
2019-02-23T05:29:09.528Z,19.17
2019-02-23T05:31:37.772Z,24.40
2019-02-23T05:34:06.038Z,21.87
2019-02-23T05:36:34.546Z,26.20
2019-02-23T05:39:03.761Z,18.40
2019-02-23T05:41:32.425Z,25.13
2019-02-23T05:44:00.788Z,26.53
2019-02-23T05:46:28.954Z,23.00
2019-02-23T05:48:57.338Z,23.67
2019-02-23T05:51:25.715Z,19.73
2019-02-23T05:53:53.952Z,19.03
2019-02-23T05:56:22.214Z,18.40
2019-02-23T05:58:50.443Z,19.97
2019-02-23T06:01:18.698Z,16.93
2019-02-23T06:03:46.893Z,22.27
2019-02-23T06:06:15.170Z,20.03
2019-02-23T06:08:43.332Z,25.67
2019-02-23T06:11:11.848Z,23.20
2019-02-23T06:13:40.246Z,18.67
2019-02-23T06:16:08.605Z,22.20
2019-02-23T06:18:37.034Z,19.90
2019-02-23T06:21:05.362Z,21.13
2019-02-23T06:23:33.739Z,27.10
2019-02-23T06:26:02.232Z,21.43
2019-02-23T06:28:30.530Z,23.50
2019-02-23T06:30:58.983Z,27.93
2019-02-23T06:33:27.262Z,22.83
2019-02-23T06:35:55.707Z,26.07
2019-02-23T06:38:24.040Z,24.07
2019-02-23T06:40:52.294Z,31.97
2019-02-23T06:43:20.532Z,29.70
2019-02-23T06:45:49.036Z,33.03
2019-02-23T06:48:19.852Z,26.13
2019-02-23T06:50:47.535Z,36.67
2019-02-23T06:53:15.939Z,30.80
2019-02-23T06:55:44.304Z,31.80
2019-02-23T06:58:12.683Z,27.13
2019-02-23T07:00:41.090Z,21.30
2019-02-23T07:03:09.528Z,27.93
2019-02-23T07:05:37.820Z,31.57
2019-02-23T07:08:06.172Z,38.63
2019-02-23T07:10:34.482Z,36.83
2019-02-23T07:13:02.768Z,31.17
2019-02-23T07:15:31.042Z,26.63
2019-02-23T07:17:59.816Z,31.43
2019-02-23T07:20:28.303Z,33.30
2019-02-23T07:22:56.547Z,22.10
2019-02-23T07:25:24.857Z,27.47
2019-02-23T07:27:53.233Z,22.63
2019-02-23T07:30:21.623Z,21.67
2019-02-23T07:32:50.101Z,21.13
2019-02-23T07:35:18.477Z,22.93
2019-02-23T07:37:46.682Z,18.47
2019-02-23T07:40:15.437Z,25.13
2019-02-23T07:42:43.933Z,29.23
2019-02-23T07:45:12.508Z,18.97
2019-02-23T07:47:40.994Z,27.00
2019-02-23T07:50:10.990Z,18.23
2019-02-23T07:52:39.383Z,21.27
2019-02-23T07:55:07.800Z,26.57
2019-02-23T07:57:36.088Z,18.27
2019-02-23T08:00:05.928Z,19.43
2019-02-23T08:02:34.118Z,26.37
2019-02-23T08:05:02.302Z,29.57
2019-02-23T08:07:30.713Z,16.53
2019-02-23T08:09:58.981Z,23.60
2019-02-23T08:12:27.440Z,20.10
2019-02-23T08:14:55.863Z,22.23
2019-02-23T08:17:24.112Z,23.90
2019-02-23T08:19:52.440Z,21.93
2019-02-23T08:22:20.643Z,22.23
2019-02-23T08:24:49.028Z,20.13
2019-02-23T08:27:17.305Z,20.27
2019-02-23T08:29:45.688Z,21.90
2019-02-23T08:32:13.963Z,24.13
2019-02-23T08:34:42.422Z,24.63
2019-02-23T08:37:10.728Z,27.47
2019-02-23T08:39:39.002Z,23.07
2019-02-23T08:42:07.277Z,15.67
2019-02-23T08:44:35.550Z,17.17
2019-02-23T08:47:03.845Z,34.07
2019-02-23T08:49:32.034Z,15.47
2019-02-23T08:52:00.181Z,11.07
2019-02-23T08:54:28.240Z,21.67
2019-02-23T08:56:56.414Z,19.27
2019-02-23T08:59:24.594Z,11.97
2019-02-23T09:01:52.710Z,15.57
2019-02-23T09:04:21.888Z,11.10
2019-02-23T09:06:50.050Z,11.07
2019-02-23T09:09:18.428Z,10.93
2019-02-23T09:11:46.784Z,9.67
2019-02-23T09:14:14.976Z,7.63
2019-02-23T09:16:43.142Z,8.87
2019-02-23T09:19:11.330Z,8.13
2019-02-23T09:21:39.513Z,6.83
2019-02-23T09:24:07.649Z,10.60
2019-02-23T09:26:35.902Z,17.57
2019-02-23T09:29:04.149Z,10.07
2019-02-23T09:31:32.405Z,6.97
2019-02-23T09:34:00.778Z,8.80
2019-02-23T09:36:30.329Z,10.67
2019-02-23T09:38:58.585Z,8.40
2019-02-23T09:41:27.020Z,9.63
2019-02-23T09:43:55.404Z,11.77
2019-02-23T09:46:23.779Z,6.57
2019-02-23T09:48:52.211Z,6.63
2019-02-23T09:51:20.550Z,7.20
2019-02-23T09:53:48.810Z,8.63
2019-02-23T09:56:17.187Z,9.27
2019-02-23T09:58:45.507Z,7.53
2019-02-23T10:01:13.729Z,11.40
2019-02-23T10:03:42.157Z,11.17
2019-02-23T10:06:10.535Z,5.70
2019-02-23T10:08:38.722Z,7.90
2019-02-23T10:11:07.220Z,6.37
2019-02-23T10:13:35.659Z,8.43
2019-02-23T10:16:04.055Z,9.40
2019-02-23T10:18:32.444Z,6.47
2019-02-23T10:21:00.717Z,8.27
2019-02-23T10:23:29.098Z,7.63
2019-02-23T10:25:57.532Z,11.63
2019-02-23T10:28:25.734Z,9.90
2019-02-23T10:30:54.062Z,7.50
2019-02-23T10:33:22.408Z,8.60
2019-02-23T10:35:50.699Z,5.10
2019-02-23T10:38:19.273Z,7.70
2019-02-23T10:40:47.553Z,7.87
2019-02-23T10:43:15.905Z,12.03
2019-02-23T10:45:44.220Z,10.53
2019-02-23T10:48:12.489Z,11.53
2019-02-23T10:50:40.766Z,7.30
2019-02-23T10:53:09.323Z,8.47
2019-02-23T10:55:37.722Z,14.07
2019-02-23T10:58:06.012Z,9.97
2019-02-23T11:00:34.321Z,12.83
2019-02-23T11:03:02.656Z,8.97
2019-02-23T11:05:30.932Z,8.90
2019-02-23T11:07:59.413Z,11.77
2019-02-23T11:10:27.895Z,8.77
2019-02-23T11:12:56.210Z,9.57
2019-02-23T11:15:24.868Z,9.60
2019-02-23T11:17:53.165Z,9.90
2019-02-23T11:20:22.295Z,11.37
2019-02-23T11:22:50.818Z,9.70
2019-02-23T11:25:19.130Z,5.47
2019-02-23T11:27:47.507Z,6.97
2019-02-23T11:30:16.453Z,8.67
2019-02-23T11:32:44.854Z,6.67
2019-02-23T11:35:14.061Z,6.80
2019-02-23T11:37:42.404Z,10.13
2019-02-23T11:40:11.590Z,10.67
2019-02-23T11:42:40.008Z,9.63
2019-02-23T11:45:09.492Z,8.97
2019-02-23T11:47:37.993Z,7.67
2019-02-23T11:50:08.232Z,12.93
2019-02-23T11:52:39.307Z,12.57
2019-02-23T11:55:07.015Z,12.03
2019-02-23T11:57:35.413Z,10.47
2019-02-23T12:00:05.468Z,22.73
2019-02-23T12:02:35.465Z,18.43
2019-02-23T12:05:04.016Z,12.93
2019-02-23T12:07:32.167Z,13.13
2019-02-23T12:10:00.379Z,14.73
2019-02-23T12:12:28.681Z,18.37
2019-02-23T12:14:57.049Z,12.40
2019-02-23T12:17:25.378Z,14.10
2019-02-23T12:19:55.376Z,15.87
2019-02-23T12:22:23.589Z,14.73
2019-02-23T12:24:51.729Z,13.73
2019-02-23T12:27:20.076Z,20.67
2019-02-23T12:29:48.531Z,12.03
2019-02-23T12:32:16.733Z,19.70
2019-02-23T12:34:45.088Z,17.40
2019-02-23T12:37:13.469Z,8.87
2019-02-23T12:39:41.639Z,16.40
2019-02-23T12:42:10.002Z,15.00
2019-02-23T12:44:38.399Z,20.20
2019-02-23T12:47:06.776Z,16.43
2019-02-23T12:49:35.289Z,18.47
2019-02-23T12:52:03.743Z,9.23
2019-02-23T12:54:32.023Z,12.93
2019-02-23T12:57:00.292Z,15.17
2019-02-23T12:59:28.773Z,12.03
2019-02-23T13:01:56.970Z,12.10
2019-02-23T13:04:25.235Z,5.97
2019-02-23T13:06:53.564Z,13.70
2019-02-23T13:09:23.167Z,17.10
2019-02-23T13:11:53.132Z,13.87
2019-02-23T13:14:21.010Z,17.23
2019-02-23T13:16:50.852Z,13.33
2019-02-23T13:19:20.731Z,17.80
2019-02-23T13:21:50.462Z,15.17
2019-02-23T13:24:27.688Z,22.83
2019-02-23T13:26:50.189Z,27.40
2019-02-23T13:29:18.162Z,20.63
2019-02-23T13:31:47.972Z,17.20
2019-02-23T13:34:17.727Z,16.90
2019-02-23T13:36:47.573Z,11.57
2019-02-23T13:39:17.524Z,13.20
2019-02-23T13:41:47.407Z,14.80
2019-02-23T13:44:19.321Z,17.10
2019-02-23T13:46:48.626Z,20.23
2019-02-23T13:49:18.458Z,18.80
2019-02-23T13:51:48.334Z,10.53
2019-02-23T13:54:18.209Z,18.17
2019-02-23T13:56:48.003Z,13.60
2019-02-23T13:59:17.845Z,18.10
2019-02-23T14:01:47.577Z,15.17
2019-02-23T14:04:17.285Z,13.43
2019-02-23T14:06:47.131Z,12.87
2019-02-23T14:09:16.898Z,18.73
2019-02-23T14:11:46.751Z,17.27
2019-02-23T14:14:16.611Z,15.50
2019-02-23T14:16:46.433Z,18.23
2019-02-23T14:19:16.258Z,11.40
2019-02-23T14:21:46.163Z,10.07
2019-02-23T14:24:16.074Z,14.70
2019-02-23T14:26:45.799Z,14.13
2019-02-23T14:29:15.690Z,14.27
2019-02-23T14:31:45.506Z,11.87
2019-02-23T14:34:15.330Z,12.33
2019-02-23T14:36:45.283Z,13.57
2019-02-23T14:39:15.306Z,9.30
2019-02-23T14:41:45.373Z,12.67
2019-02-23T14:44:16.218Z,13.90
2019-02-23T14:46:45.978Z,18.50
2019-02-23T14:49:16.546Z,14.63
2019-02-23T14:51:46.642Z,21.57
2019-02-23T14:54:16.474Z,12.80
2019-02-23T14:56:46.313Z,16.77
2019-02-23T14:59:14.230Z,17.27
2019-02-23T15:01:45.019Z,15.67
2019-02-23T15:04:14.818Z,12.90
2019-02-23T15:06:44.737Z,13.83
2019-02-23T15:09:17.148Z,12.60
2019-02-23T15:11:46.418Z,15.10
2019-02-23T15:14:16.326Z,11.10
2019-02-23T15:16:46.384Z,12.40
2019-02-23T15:19:16.259Z,9.50
2019-02-23T15:21:46.274Z,15.03
2019-02-23T15:24:16.199Z,10.27
2019-02-23T15:26:46.057Z,10.43
2019-02-23T15:29:15.964Z,11.77
2019-02-23T15:31:45.836Z,15.70
2019-02-23T15:34:15.585Z,13.20
2019-02-23T15:36:45.327Z,14.77
2019-02-23T15:39:15.081Z,17.77
2019-02-23T15:41:44.894Z,14.77
2019-02-23T15:44:14.756Z,22.03
2019-02-23T15:46:44.624Z,20.67
2019-02-23T15:49:14.368Z,11.80
2019-02-23T15:51:42.769Z,16.50
2019-02-23T15:54:10.998Z,17.90
2019-02-23T15:56:39.264Z,14.13
2019-02-23T15:59:07.676Z,12.03
2019-02-23T16:01:36.049Z,17.90
2019-02-23T16:04:04.443Z,10.60
2019-02-23T16:06:32.730Z,16.20
2019-02-23T16:09:01.158Z,21.90
2019-02-23T16:11:31.002Z,27.50
2019-02-23T16:13:59.351Z,17.83
2019-02-23T16:16:27.738Z,15.90
2019-02-23T16:18:56.217Z,22.90
2019-02-23T16:21:24.587Z,18.80
2019-02-23T16:23:52.861Z,16.23
2019-02-23T16:26:21.199Z,16.33
2019-02-23T16:28:49.626Z,25.27
2019-02-23T16:31:18.018Z,15.67
2019-02-23T16:33:46.284Z,19.73
2019-02-23T16:36:14.579Z,20.73
2019-02-23T16:38:43.058Z,23.97
2019-02-23T16:41:11.261Z,15.77
2019-02-23T16:43:39.525Z,21.53
2019-02-23T16:46:07.710Z,19.33
2019-02-23T16:48:35.971Z,29.03
2019-02-23T16:51:04.268Z,20.17
2019-02-23T16:53:32.675Z,17.13
2019-02-23T16:56:00.976Z,17.13
2019-02-23T16:58:29.256Z,22.17
2019-02-23T17:00:57.639Z,19.60
2019-02-23T17:03:26.026Z,20.27
2019-02-23T17:05:54.399Z,22.03
2019-02-23T17:08:22.874Z,21.20
2019-02-23T17:10:51.158Z,23.83
2019-02-23T17:13:19.407Z,23.53
2019-02-23T17:15:47.770Z,17.33
2019-02-23T17:18:16.001Z,16.13
2019-02-23T17:20:44.481Z,17.47
2019-02-23T17:23:12.960Z,18.07
2019-02-23T17:25:41.448Z,19.13
2019-02-23T17:28:09.805Z,22.20
2019-02-23T17:30:38.204Z,15.53
2019-02-23T17:33:06.775Z,17.73
2019-02-23T17:35:35.255Z,24.37
2019-02-23T17:38:15.495Z,21.90
2019-02-23T17:40:33.695Z,22.23
2019-02-23T17:43:02.125Z,20.03
2019-02-23T17:45:30.546Z,19.53
2019-02-23T17:47:59.007Z,27.70
2019-02-23T17:50:27.405Z,27.57
2019-02-23T17:52:55.692Z,27.73
2019-02-23T17:55:23.968Z,25.60
2019-02-23T17:57:52.438Z,29.67
2019-02-23T18:00:22.489Z,27.00
2019-02-23T18:02:50.812Z,25.87
2019-02-23T18:05:19.335Z,31.40
2019-02-23T18:07:47.667Z,32.47
2019-02-23T18:10:16.054Z,25.40
2019-02-23T18:12:44.491Z,37.67
2019-02-23T18:15:12.738Z,34.33
2019-02-23T18:17:41.515Z,33.63
2019-02-23T18:20:10.883Z,27.57
2019-02-23T18:22:39.815Z,33.63
2019-02-23T18:25:08.700Z,29.57
2019-02-23T18:27:37.413Z,43.70
2019-02-23T18:30:11.371Z,39.23
2019-02-23T18:32:37.928Z,45.53
2019-02-23T18:35:07.516Z,47.10
2019-02-23T18:37:36.013Z,36.77
2019-02-23T18:40:05.315Z,45.93
2019-02-23T18:42:35.655Z,33.97
2019-02-23T18:45:06.378Z,34.60
2019-02-23T18:47:34.845Z,38.23
2019-02-23T18:50:03.851Z,32.37
2019-02-23T18:52:32.256Z,32.80
2019-02-23T18:55:00.566Z,26.73
2019-02-23T18:57:28.829Z,33.57
2019-02-23T18:59:57.375Z,25.80
2019-02-23T19:02:25.739Z,29.27
2019-02-23T19:04:54.140Z,35.17
2019-02-23T19:07:22.643Z,30.77
2019-02-23T19:09:50.947Z,43.47
2019-02-23T19:12:20.846Z,51.90
2019-02-23T19:14:55.383Z,45.77
2019-02-23T19:17:23.963Z,45.37
2019-02-23T19:19:52.389Z,44.30
2019-02-23T19:22:21.788Z,42.27
2019-02-23T19:24:50.380Z,44.53
2019-02-23T19:27:18.749Z,36.77
2019-02-23T19:29:47.227Z,35.60
2019-02-23T19:32:15.608Z,25.73
2019-02-23T19:34:44.052Z,36.13
2019-02-23T19:37:14.004Z,36.30
2019-02-23T19:39:42.494Z,45.20
2019-02-23T19:42:11.174Z,37.90
2019-02-23T19:44:39.559Z,30.20
2019-02-23T19:47:08.683Z,30.37
2019-02-23T19:49:37.097Z,30.07
2019-02-23T19:52:05.305Z,36.63
2019-02-23T19:54:33.725Z,41.53
2019-02-23T19:57:02.092Z,34.47
2019-02-23T19:59:30.681Z,21.67
2019-02-23T20:01:59.075Z,36.63
2019-02-23T20:04:27.520Z,28.80
2019-02-23T20:06:56.115Z,28.63
2019-02-23T20:09:24.583Z,23.17
2019-02-23T20:11:53.003Z,23.20
2019-02-23T20:14:21.292Z,29.80
2019-02-23T20:16:49.625Z,30.33
2019-02-23T20:19:19.659Z,27.53
2019-02-23T20:21:47.884Z,32.37
2019-02-23T20:24:16.143Z,32.83
2019-02-23T20:26:44.573Z,32.67
2019-02-23T20:29:12.943Z,27.00
2019-02-23T20:31:42.322Z,32.43
2019-02-23T20:34:10.628Z,28.40
2019-02-23T20:36:39.009Z,19.73
2019-02-23T20:39:07.381Z,23.80
2019-02-23T20:41:37.303Z,34.27
2019-02-23T20:44:05.761Z,32.93
2019-02-23T20:46:34.044Z,43.43
2019-02-23T20:49:02.387Z,31.53
2019-02-23T20:51:30.792Z,33.57
2019-02-23T20:53:59.051Z,34.13
2019-02-23T20:56:27.327Z,26.90
2019-02-23T20:58:55.746Z,30.40
2019-02-23T21:01:23.962Z,30.40
2019-02-23T21:03:52.283Z,31.83
2019-02-23T21:06:22.146Z,26.90
2019-02-23T21:08:50.704Z,33.70
2019-02-23T21:11:19.078Z,35.07
2019-02-23T21:13:47.373Z,32.57
2019-02-23T21:16:15.638Z,29.83
2019-02-23T21:18:44.030Z,31.83
2019-02-23T21:21:12.282Z,33.67
2019-02-23T21:23:40.678Z,37.50
2019-02-23T21:26:08.953Z,34.07
2019-02-23T21:28:38.502Z,22.90
2019-02-23T21:31:06.735Z,31.63
2019-02-23T21:33:35.036Z,31.20
2019-02-23T21:36:04.485Z,31.00
2019-02-23T21:38:32.796Z,23.87
2019-02-23T21:41:01.080Z,32.47
2019-02-23T21:43:29.391Z,21.33
2019-02-23T21:45:57.627Z,32.77
2019-02-23T21:48:26.108Z,28.07
2019-02-23T21:50:54.293Z,26.50
2019-02-23T21:53:22.562Z,32.43
2019-02-23T21:55:51.790Z,37.97
2019-02-23T21:58:20.448Z,29.27
2019-02-23T22:00:48.765Z,38.57
2019-02-23T22:03:17.049Z,33.37
2019-02-23T22:05:45.399Z,36.07
2019-02-23T22:08:13.822Z,37.67
2019-02-23T22:10:42.218Z,30.60
2019-02-23T22:13:10.632Z,30.37
2019-02-23T22:15:38.915Z,36.83
2019-02-23T22:18:07.224Z,23.97
2019-02-23T22:20:35.483Z,22.43
2019-02-23T22:23:03.841Z,24.97
2019-02-23T22:25:32.124Z,35.00
2019-02-23T22:28:00.458Z,21.40
2019-02-23T22:30:28.960Z,26.20
2019-02-23T22:32:57.052Z,24.13
2019-02-23T22:35:25.413Z,30.87
2019-02-23T22:37:53.696Z,35.53
2019-02-23T22:40:22.088Z,28.47
2019-02-23T22:42:50.418Z,26.07
2019-02-23T22:45:18.835Z,28.70
2019-02-23T22:47:47.107Z,28.20
2019-02-23T22:50:15.393Z,33.37
2019-02-23T22:52:43.666Z,34.37
2019-02-23T22:55:11.949Z,23.20
2019-02-23T22:57:41.085Z,36.57
2019-02-23T23:00:11.366Z,26.03
2019-02-23T23:02:41.325Z,33.43
2019-02-23T23:05:09.700Z,32.73
2019-02-23T23:07:37.968Z,25.83
2019-02-23T23:10:06.925Z,26.80
2019-02-23T23:12:35.521Z,24.43
2019-02-23T23:15:04.322Z,29.93
2019-02-23T23:17:32.707Z,32.63
2019-02-23T23:20:01.055Z,25.47
2019-02-23T23:22:29.491Z,21.77
2019-02-23T23:24:57.918Z,34.10
2019-02-23T23:27:27.221Z,26.70
2019-02-23T23:29:56.555Z,26.20
2019-02-23T23:32:25.019Z,24.17
2019-02-23T23:34:53.281Z,20.37
2019-02-23T23:37:21.762Z,31.50
2019-02-23T23:39:49.953Z,24.40
2019-02-23T23:42:18.118Z,28.33
2019-02-23T23:44:46.440Z,28.90
2019-02-23T23:47:14.780Z,32.77
2019-02-23T23:49:43.048Z,16.77
2019-02-23T23:52:11.248Z,27.73
2019-02-23T23:54:39.410Z,39.10
2019-02-23T23:57:07.541Z,29.80
2019-02-23T23:59:35.855Z,27.17
